EFKK/KOK METAR and TAF weather

Enter ICAO airport designator
Station Type Date Time Source
EFKK METAR 2021/07/30 06:20 UTC NOAA

EFKK 300620Z AUTO 19008KT 9999 SHRA OVC004 //////CB 16/15 Q0992


Station Type Date Time Source
EFKK Decoded METAR 2021/07/30 06:20 UTC NOAA

Kruunupyy, Finland (EFKK) 63-43N 023-09E
Jul 30, 2021 - 02:20 AM EDT / 2021.07.30 0620 UTC
Wind: from the S (190 degrees) at 9 MPH (8 KT):0
Visibility: greater than 7 mile(s):0
Sky conditions: overcast
Weather: rain showers; Cumulonimbus clouds observed
Temperature: 60 F (16 C)
Dew Point: 59 F (15 C)
Relative Humidity: 93%
Pressure (altimeter): 29.29 in. Hg (0992 hPa)
ob: EFKK 300620Z AUTO 19008KT 9999 SHRA OVC004 //////CB 16/15 Q0992
cycle: 6

Station Type Date Time Source
EFKK TAF 2019/04/22 21:42 UTC NOAA

TAF EFKK 222023Z 2221/2321 18006KT CAVOK

Example: see airport list